createdAt,value
2023-03-26T00:01:25.901Z,97772.03
2023-03-26T00:03:57.659Z,97770.09
2023-03-26T00:06:28.669Z,97780.22
2023-03-26T00:08:57.208Z,97773.34
2023-03-26T00:11:25.352Z,97780.97
2023-03-26T00:13:53.728Z,97781.44
2023-03-26T00:16:20.649Z,97777.78
2023-03-26T00:18:48.962Z,97791.53
2023-03-26T00:21:18.050Z,97784.63
2023-03-26T00:23:44.642Z,97787.50
2023-03-26T00:26:11.167Z,97783.63
2023-03-26T00:28:40.332Z,97788.16
2023-03-26T00:31:09.417Z,97788.50
2023-03-26T00:33:40.683Z,97780.38
2023-03-26T00:36:11.151Z,97787.66
2023-03-26T00:38:39.113Z,97772.34
2023-03-26T00:41:25.508Z,97771.03
2023-03-26T00:43:56.374Z,97787.22
2023-03-26T00:46:24.767Z,97772.97
2023-03-26T00:48:51.402Z,97770.31
2023-03-26T00:51:19.615Z,97762.34
2023-03-26T00:53:47.769Z,97763.84
2023-03-26T00:56:14.737Z,97763.03
2023-03-26T00:58:42.078Z,97767.28
2023-03-26T01:01:15.534Z,97766.22
2023-03-26T01:03:50.333Z,97758.53
2023-03-26T01:06:27.788Z,97758.63
2023-03-26T01:09:00.280Z,97761.06
2023-03-26T01:11:31.852Z,97744.59
2023-03-26T01:14:20.403Z,97755.75
2023-03-26T01:16:56.379Z,97751.34
2023-03-26T01:19:31.740Z,97749.91
2023-03-26T01:21:59.034Z,97745.13
2023-03-26T01:24:25.622Z,97751.66
2023-03-26T01:26:58.163Z,97746.03
2023-03-26T01:29:46.408Z,97737.47
2023-03-26T01:32:35.287Z,97734.31
2023-03-26T01:35:20.552Z,97740.28
2023-03-26T01:38:17.504Z,97736.81
2023-03-26T01:40:50.366Z,97742.94
2023-03-26T01:43:29.069Z,97736.09
2023-03-26T01:45:57.958Z,97724.91
2023-03-26T01:48:36.776Z,97719.16
2023-03-26T01:51:04.830Z,97719.16
2023-03-26T01:53:33.333Z,97709.31
2023-03-26T01:56:13.184Z,97718.09
2023-03-26T01:58:57.316Z,97711.34
2023-03-26T02:01:30.264Z,97709.91
2023-03-26T02:04:11.688Z,97703.09
2023-03-26T02:07:07.620Z,97711.50
2023-03-26T02:09:42.100Z,97687.78
2023-03-26T02:12:09.703Z,97697.16
2023-03-26T02:14:36.344Z,97702.13
2023-03-26T02:17:03.028Z,97690.59
2023-03-26T02:19:29.787Z,97686.13
2023-03-26T02:21:59.702Z,97692.56
2023-03-26T02:24:26.620Z,97687.72
2023-03-26T02:26:53.192Z,97688.38
2023-03-26T02:29:20.441Z,97680.69
2023-03-26T02:31:50.988Z,97673.69
2023-03-26T02:34:17.768Z,97671.97
2023-03-26T02:36:44.242Z,97670.16
2023-03-26T02:39:11.978Z,97667.88
2023-03-26T02:41:39.120Z,97670.59
2023-03-26T02:44:06.216Z,97669.59
2023-03-26T02:46:33.689Z,97661.53
2023-03-26T02:49:00.229Z,97662.03
2023-03-26T02:51:27.268Z,97646.97
2023-03-26T02:53:54.707Z,97654.53
2023-03-26T02:56:21.231Z,97648.41
2023-03-26T02:58:48.224Z,97645.31
2023-03-26T03:01:18.313Z,97640.53
2023-03-26T03:03:47.226Z,97633.28
2023-03-26T03:06:14.530Z,97632.97
2023-03-26T03:08:41.621Z,97629.63
2023-03-26T03:11:14.815Z,97632.81
2023-03-26T03:13:42.065Z,97627.31
2023-03-26T03:16:09.851Z,97631.19
2023-03-26T03:18:36.590Z,97630.66
2023-03-26T03:21:04.047Z,97630.09
2023-03-26T03:23:30.749Z,97633.81
2023-03-26T03:25:58.076Z,97624.06
2023-03-26T03:28:25.740Z,97625.06
2023-03-26T03:30:57.420Z,97617.31
2023-03-26T03:33:24.270Z,97614.94
2023-03-26T03:35:52.468Z,97615.25
2023-03-26T03:38:19.313Z,97609.56
2023-03-26T03:40:45.792Z,97605.53
2023-03-26T03:43:12.223Z,97599.28
2023-03-26T03:45:38.679Z,97599.44
2023-03-26T03:48:05.322Z,97600.63
2023-03-26T03:50:33.704Z,97594.72
2023-03-26T03:53:01.554Z,97584.97
2023-03-26T03:55:30.016Z,97590.28
2023-03-26T03:57:58.314Z,97583.53
2023-03-26T04:00:24.837Z,97584.44
2023-03-26T04:02:54.339Z,97574.91
2023-03-26T04:05:21.251Z,97574.16
2023-03-26T04:07:47.726Z,97565.28
2023-03-26T04:10:15.270Z,97567.41
2023-03-26T04:12:41.827Z,97563.25
2023-03-26T04:15:08.424Z,97555.44
2023-03-26T04:17:42.339Z,97555.59
2023-03-26T04:20:15.468Z,97555.53
2023-03-26T04:22:45.122Z,97552.88
2023-03-26T04:25:13.376Z,97549.91
2023-03-26T04:27:41.751Z,97546.66
2023-03-26T04:30:11.001Z,97550.28
2023-03-26T04:32:39.136Z,97544.56
2023-03-26T04:35:06.736Z,97546.59
2023-03-26T04:37:41.539Z,97540.75
2023-03-26T04:40:15.973Z,97541.28
2023-03-26T04:42:46.273Z,97538.63
2023-03-26T04:45:22.325Z,97534.81
2023-03-26T04:47:50.172Z,97530.06
2023-03-26T04:50:16.743Z,97515.97
2023-03-26T04:52:45.146Z,97522.91
2023-03-26T04:55:30.992Z,97510.34
2023-03-26T04:58:05.484Z,97507.78
2023-03-26T05:00:32.349Z,97509.31
2023-03-26T05:02:59.396Z,97504.63
2023-03-26T05:05:26.948Z,97496.69
2023-03-26T05:07:53.713Z,97487.28
2023-03-26T05:10:20.895Z,97485.00
2023-03-26T05:12:47.508Z,97479.78
2023-03-26T05:15:15.358Z,97467.75
2023-03-26T05:17:42.134Z,97465.94
2023-03-26T05:20:18.232Z,97461.78
2023-03-26T05:22:44.961Z,97462.81
2023-03-26T05:25:11.466Z,97458.34
2023-03-26T05:27:38.508Z,97445.47
2023-03-26T05:30:06.231Z,97444.19
2023-03-26T05:32:33.787Z,97439.50
2023-03-26T05:35:00.989Z,97427.28
2023-03-26T05:37:31.878Z,97433.13
2023-03-26T05:39:59.246Z,97424.72
2023-03-26T05:42:26.322Z,97420.28
2023-03-26T05:44:52.702Z,97418.75
2023-03-26T05:47:19.223Z,97414.31
2023-03-26T05:49:46.904Z,97418.91
2023-03-26T05:52:16.070Z,97416.50
2023-03-26T05:54:42.782Z,97403.41
2023-03-26T05:57:09.261Z,97408.16
2023-03-26T05:59:36.629Z,97403.53
2023-03-26T06:02:03.420Z,97404.34
2023-03-26T06:04:29.953Z,97391.94
2023-03-26T06:06:56.915Z,97390.44
2023-03-26T06:09:23.799Z,97381.13
2023-03-26T06:11:50.282Z,97376.94
2023-03-26T06:14:16.921Z,97377.56
2023-03-26T06:16:43.429Z,97368.91
2023-03-26T06:19:09.976Z,97363.69
2023-03-26T06:21:36.394Z,97362.91
2023-03-26T06:24:02.895Z,97362.91
2023-03-26T06:26:29.345Z,97360.59
2023-03-26T06:28:55.771Z,97344.38
2023-03-26T06:31:22.202Z,97348.00
2023-03-26T06:33:48.888Z,97351.97
2023-03-26T06:36:15.451Z,97348.31
2023-03-26T06:38:41.875Z,97340.53
2023-03-26T06:41:08.303Z,97338.94
2023-03-26T06:43:36.161Z,97342.06
2023-03-26T06:46:02.862Z,97335.78
2023-03-26T06:48:29.338Z,97337.44
2023-03-26T06:50:55.947Z,97337.63
2023-03-26T06:53:22.549Z,97331.66
2023-03-26T06:55:49.101Z,97326.69
2023-03-26T06:58:16.623Z,97316.84
2023-03-26T07:00:43.268Z,97321.44
2023-03-26T07:03:11.201Z,97298.94
2023-03-26T07:05:38.720Z,97311.66
2023-03-26T07:08:05.420Z,97304.63
2023-03-26T07:10:32.132Z,97308.28
2023-03-26T07:12:58.572Z,97310.59
2023-03-26T07:15:25.141Z,97302.53
2023-03-26T07:17:51.832Z,97302.44
2023-03-26T07:20:18.494Z,97301.59
2023-03-26T07:22:45.233Z,97305.75
2023-03-26T07:25:13.588Z,97301.63
2023-03-26T07:28:04.669Z,97301.69
2023-03-26T07:30:49.834Z,97298.41
2023-03-26T07:33:22.759Z,97295.09
2023-03-26T07:35:57.868Z,97287.44
2023-03-26T07:38:50.704Z,97291.38
2023-03-26T07:41:37.710Z,97294.13
2023-03-26T07:44:29.251Z,97282.47
2023-03-26T07:46:57.168Z,97270.25
2023-03-26T07:49:23.985Z,97276.06
2023-03-26T07:51:50.737Z,97272.16
2023-03-26T07:54:17.504Z,97262.59
2023-03-26T07:56:58.677Z,97260.63
2023-03-26T07:59:43.808Z,97259.28
2023-03-26T08:02:31.507Z,97263.59
2023-03-26T08:05:00.784Z,97258.31
2023-03-26T08:07:45.441Z,97256.44
2023-03-26T08:10:14.922Z,97251.97
2023-03-26T08:13:26.632Z,97251.38
2023-03-26T08:16:05.582Z,97255.97
2023-03-26T08:18:44.624Z,97251.50
2023-03-26T08:21:27.131Z,97249.19
2023-03-26T08:23:56.666Z,97252.06
2023-03-26T08:26:39.381Z,97245.41
2023-03-26T08:29:08.609Z,97238.56
2023-03-26T08:31:39.142Z,97245.19
2023-03-26T08:34:06.316Z,97233.16
2023-03-26T08:36:32.849Z,97248.97
2023-03-26T08:38:59.687Z,97243.84
2023-03-26T08:42:15.281Z,97241.78
2023-03-26T08:44:59.984Z,97239.31
2023-03-26T08:47:45.276Z,97232.84
2023-03-26T08:50:39.873Z,97229.47
2023-03-26T08:53:24.769Z,97217.72
2023-03-26T08:56:13.045Z,97220.72
2023-03-26T08:59:05.870Z,97212.41
2023-03-26T09:02:07.839Z,97204.13
2023-03-26T09:05:26.544Z,97194.69
2023-03-26T09:08:11.397Z,97188.88
2023-03-26T09:11:13.068Z,97188.88
2023-03-26T09:14:16.677Z,97178.78
2023-03-26T09:17:07.649Z,97185.56
2023-03-26T09:19:33.994Z,97176.63
2023-03-26T09:22:17.346Z,97188.22
2023-03-26T09:25:02.154Z,97194.00
2023-03-26T09:27:34.724Z,97190.88
2023-03-26T09:30:33.716Z,97177.97
2023-03-26T09:33:24.663Z,97171.78
2023-03-26T09:36:07.796Z,97176.78
2023-03-26T09:38:34.335Z,97180.69
2023-03-26T09:41:12.921Z,97182.38
2023-03-26T09:44:07.520Z,97169.97
2023-03-26T09:46:55.653Z,97168.13
2023-03-26T09:49:40.982Z,97176.19
2023-03-26T09:52:44.397Z,97171.66
2023-03-26T09:55:43.025Z,97171.19
2023-03-26T09:58:31.464Z,97168.63
2023-03-26T10:01:06.983Z,97170.09
2023-03-26T10:03:58.343Z,97155.13
2023-03-26T10:06:33.724Z,97162.59
2023-03-26T10:09:18.544Z,97162.69
2023-03-26T10:12:13.697Z,97148.09
2023-03-26T10:15:31.100Z,97152.53
2023-03-26T10:18:27.036Z,97153.00
2023-03-26T10:21:07.092Z,97141.81
2023-03-26T10:24:07.558Z,97117.47
2023-03-26T10:27:23.054Z,97116.88
2023-03-26T10:30:03.455Z,97118.88
2023-03-26T10:32:45.411Z,97126.94
2023-03-26T10:35:39.777Z,97120.47
2023-03-26T10:38:44.850Z,97114.38
2023-03-26T10:41:21.498Z,97105.13
2023-03-26T10:44:07.461Z,97106.56
2023-03-26T10:46:49.603Z,97100.94
2023-03-26T10:49:27.910Z,97089.59
2023-03-26T10:52:16.066Z,97092.44
2023-03-26T10:55:14.515Z,97073.91
2023-03-26T10:57:57.836Z,97073.59
2023-03-26T11:00:27.175Z,97084.00
2023-03-26T11:03:08.526Z,97079.22
2023-03-26T11:05:54.002Z,97093.78
2023-03-26T11:08:31.222Z,97103.09
2023-03-26T11:11:02.113Z,97095.44
2023-03-26T11:13:45.566Z,97087.50
2023-03-26T11:16:20.755Z,97082.66
2023-03-26T11:19:04.461Z,97091.50
2023-03-26T11:21:49.641Z,97075.28
2023-03-26T11:24:32.413Z,97086.38
2023-03-26T11:27:15.403Z,97080.09
2023-03-26T11:30:09.291Z,97084.91
2023-03-26T11:32:44.818Z,97086.94
2023-03-26T11:35:41.081Z,97082.72
2023-03-26T11:38:33.486Z,97066.66
2023-03-26T11:41:02.980Z,97071.09
2023-03-26T11:43:34.891Z,97065.81
2023-03-26T11:46:04.640Z,97064.97
2023-03-26T11:48:38.136Z,97054.66
2023-03-26T11:51:09.021Z,97049.34
2023-03-26T11:53:39.876Z,97050.00
2023-03-26T11:56:14.808Z,97055.25
2023-03-26T11:58:53.663Z,97048.19
2023-03-26T12:01:30.471Z,97038.84
2023-03-26T12:04:11.000Z,97040.63
2023-03-26T12:06:37.536Z,97040.09
2023-03-26T12:09:04.058Z,97047.09
2023-03-26T12:11:35.282Z,97032.88
2023-03-26T12:14:04.707Z,97027.00
2023-03-26T12:16:31.511Z,97028.09
2023-03-26T12:19:19.644Z,97022.63
2023-03-26T12:21:50.539Z,97022.03
2023-03-26T12:24:26.017Z,97022.03
2023-03-26T12:27:01.907Z,97017.66
2023-03-26T12:29:34.322Z,97014.72
2023-03-26T12:32:03.956Z,97007.47
2023-03-26T12:34:37.450Z,97012.25
2023-03-26T12:37:06.827Z,97003.34
2023-03-26T12:40:09.079Z,96998.03
2023-03-26T12:44:54.605Z,96993.69
2023-03-26T12:45:22.543Z,96995.88
2023-03-26T12:48:00.516Z,96986.03
2023-03-26T12:50:45.564Z,96991.47
2023-03-26T12:53:26.467Z,96993.59
2023-03-26T12:56:01.614Z,96989.59
2023-03-26T12:58:53.424Z,96988.78
2023-03-26T13:01:31.011Z,96990.66
2023-03-26T13:04:34.046Z,96979.72
2023-03-26T13:07:10.730Z,96982.28
2023-03-26T13:09:51.741Z,96971.25
2023-03-26T13:12:48.873Z,96976.41
2023-03-26T13:15:52.435Z,96965.19
2023-03-26T13:18:47.587Z,96962.72
2023-03-26T13:21:29.449Z,96965.03
2023-03-26T13:24:24.468Z,96968.06
2023-03-26T13:27:06.223Z,96956.22
2023-03-26T13:30:02.366Z,96935.09
2023-03-26T13:32:48.852Z,96931.16
2023-03-26T13:35:25.868Z,96922.34
2023-03-26T13:38:20.443Z,96927.88
2023-03-26T13:41:08.282Z,96916.56
2023-03-26T13:43:53.482Z,96931.34
2023-03-26T13:46:46.540Z,96919.06
2023-03-26T13:49:37.067Z,96916.75
2023-03-26T13:52:27.481Z,96918.97
2023-03-26T13:55:15.606Z,96912.91
2023-03-26T13:57:46.890Z,96913.75
2023-03-26T14:00:18.293Z,96903.88
2023-03-26T14:02:53.234Z,96913.13
2023-03-26T14:05:26.123Z,96902.84
2023-03-26T14:08:04.397Z,96903.47
2023-03-26T14:10:39.964Z,96899.50
2023-03-26T14:13:16.220Z,96894.75
2023-03-26T14:15:56.072Z,96892.00
2023-03-26T14:18:27.667Z,96892.69
2023-03-26T14:21:12.640Z,96902.75
2023-03-26T14:23:48.156Z,96915.72
2023-03-26T14:26:33.331Z,96919.53
2023-03-26T14:29:23.574Z,96950.91
2023-03-26T14:32:14.061Z,96961.72
2023-03-26T14:34:45.267Z,96922.59
2023-03-26T14:37:32.924Z,96923.00
2023-03-26T14:40:26.959Z,96906.38
2023-03-26T14:43:21.326Z,96898.56
2023-03-26T14:46:00.254Z,96900.91
2023-03-26T14:49:02.978Z,96917.47
2023-03-26T14:51:43.585Z,96927.50
2023-03-26T14:54:13.817Z,96930.50
2023-03-26T14:57:19.091Z,96933.06
2023-03-26T15:00:07.221Z,96941.41
2023-03-26T15:03:10.832Z,96936.06
2023-03-26T15:05:58.901Z,96928.97
2023-03-26T15:08:33.565Z,96936.19
2023-03-26T15:11:25.521Z,96943.06
2023-03-26T15:14:30.060Z,96946.69
2023-03-26T15:17:18.240Z,96954.66
2023-03-26T15:19:57.773Z,96970.97
2023-03-26T15:22:53.219Z,96997.84
2023-03-26T15:25:41.495Z,97014.34
2023-03-26T15:28:45.718Z,97023.13
2023-03-26T15:31:36.917Z,97006.50
2023-03-26T15:34:42.328Z,97007.19
2023-03-26T15:37:22.384Z,97010.66
2023-03-26T15:40:11.362Z,97030.22
2023-03-26T15:42:56.185Z,97011.00
2023-03-26T15:45:47.879Z,97011.16
2023-03-26T15:48:35.458Z,97018.13
2023-03-26T15:51:20.098Z,97011.31
2023-03-26T15:54:05.793Z,97015.28
2023-03-26T15:56:49.086Z,97001.06
2023-03-26T15:59:36.903Z,97005.53
2023-03-26T16:02:06.615Z,96990.94
2023-03-26T16:04:50.855Z,96985.31
2023-03-26T16:07:21.796Z,96988.47
2023-03-26T16:09:54.257Z,96990.25
2023-03-26T16:12:35.705Z,96979.63
2023-03-26T16:15:29.697Z,96992.84
2023-03-26T16:18:25.212Z,96984.91
2023-03-26T16:20:54.947Z,96986.22
2023-03-26T16:23:55.054Z,96991.56
2023-03-26T16:26:39.978Z,97001.69
2023-03-26T16:29:24.603Z,97008.41
2023-03-26T16:32:09.641Z,97010.44
2023-03-26T16:34:53.056Z,97011.28
2023-03-26T16:37:31.806Z,97025.72
2023-03-26T16:40:20.110Z,97027.56
2023-03-26T16:43:05.187Z,97027.00
2023-03-26T16:45:43.823Z,97028.13
2023-03-26T16:48:39.412Z,97033.41
2023-03-26T16:51:29.167Z,97039.13
2023-03-26T16:54:14.359Z,97043.16
2023-03-26T16:56:47.519Z,97049.34
2023-03-26T16:59:37.910Z,97052.16
2023-03-26T17:02:21.146Z,97046.38
2023-03-26T17:04:55.662Z,97049.88
2023-03-26T17:07:36.342Z,97060.00
2023-03-26T17:10:18.425Z,97058.66
2023-03-26T17:12:59.670Z,97069.94
2023-03-26T17:15:41.261Z,97070.56
2023-03-26T17:18:16.787Z,97072.53
2023-03-26T17:21:21.777Z,97068.25
2023-03-26T17:24:00.384Z,97074.72
2023-03-26T17:26:51.495Z,97080.03
2023-03-26T17:29:27.280Z,97081.84
2023-03-26T17:32:15.116Z,97082.00
2023-03-26T17:34:50.857Z,97072.75
2023-03-26T17:37:17.228Z,97081.00
2023-03-26T17:39:43.787Z,97082.00
2023-03-26T17:42:16.214Z,97090.97
2023-03-26T17:44:55.571Z,97089.78
2023-03-26T17:47:38.519Z,97090.66
2023-03-26T17:50:13.888Z,97096.59
2023-03-26T17:52:48.130Z,97090.44
2023-03-26T17:55:21.167Z,97091.97
2023-03-26T17:57:53.196Z,97097.91
2023-03-26T18:00:23.480Z,97093.13
2023-03-26T18:02:56.303Z,97095.41
2023-03-26T18:05:27.059Z,97096.28
2023-03-26T18:08:08.679Z,97093.28
2023-03-26T18:11:16.714Z,97099.09
2023-03-26T18:14:09.246Z,97095.94
2023-03-26T18:16:41.147Z,97101.06
2023-03-26T18:19:22.609Z,97092.13
2023-03-26T18:21:51.861Z,97101.22
2023-03-26T18:24:27.580Z,97111.16
2023-03-26T18:26:58.411Z,97107.84
2023-03-26T18:29:29.057Z,97108.03
2023-03-26T18:32:09.013Z,97110.69
2023-03-26T18:34:39.518Z,97111.84
2023-03-26T18:37:19.865Z,97111.50
2023-03-26T18:40:12.102Z,97116.47
2023-03-26T18:42:41.390Z,97117.47
2023-03-26T18:45:16.844Z,97115.31
2023-03-26T18:47:43.735Z,97122.28
2023-03-26T18:50:16.793Z,97124.25
2023-03-26T18:52:44.876Z,97123.44
2023-03-26T18:55:13.987Z,97131.22
2023-03-26T18:57:42.413Z,97144.16
2023-03-26T19:00:20.718Z,97142.63
2023-03-26T19:02:51.545Z,97143.94
2023-03-26T19:05:19.635Z,97135.81
2023-03-26T19:07:47.296Z,97134.50
2023-03-26T19:10:22.320Z,97135.50
2023-03-26T19:13:05.647Z,97140.97
2023-03-26T19:15:34.400Z,97143.97
2023-03-26T19:18:07.434Z,97148.41
2023-03-26T19:20:43.942Z,97161.69
2023-03-26T19:23:16.111Z,97159.53
2023-03-26T19:25:49.429Z,97163.16
2023-03-26T19:28:38.381Z,97166.69
2023-03-26T19:31:36.116Z,97173.13
2023-03-26T19:34:24.370Z,97180.59
2023-03-26T19:36:58.108Z,97167.50
2023-03-26T19:39:51.161Z,97172.28
2023-03-26T19:42:27.627Z,97167.31
2023-03-26T19:45:17.989Z,97180.22
2023-03-26T19:47:50.378Z,97182.03
2023-03-26T19:50:27.815Z,97185.00
2023-03-26T19:53:17.713Z,97184.06
2023-03-26T19:58:30.752Z,97189.84
2023-03-26T20:00:57.616Z,97196.47
2023-03-26T20:03:30.560Z,97202.59
2023-03-26T20:05:57.123Z,97208.59
2023-03-26T20:08:29.633Z,97204.94
2023-03-26T20:10:57.923Z,97209.78
2023-03-26T20:13:24.934Z,97213.59
2023-03-26T20:16:25.748Z,97215.75
2023-03-26T20:18:52.439Z,97224.69
2023-03-26T20:21:19.027Z,97222.69
2023-03-26T20:23:45.792Z,97221.19
2023-03-26T20:26:15.297Z,97235.78
2023-03-26T20:28:48.452Z,97230.78
2023-03-26T20:31:22.292Z,97243.16
2023-03-26T20:33:50.600Z,97250.94
2023-03-26T20:36:33.946Z,97256.75
2023-03-26T20:39:05.638Z,97274.78
2023-03-26T20:41:33.700Z,97272.47
2023-03-26T20:44:00.497Z,97273.41
2023-03-26T20:46:31.255Z,97283.38
2023-03-26T20:48:58.876Z,97276.47
2023-03-26T20:51:28.034Z,97290.69
2023-03-26T20:53:55.242Z,97298.47
2023-03-26T20:56:21.842Z,97300.75
2023-03-26T20:58:54.663Z,97289.63
2023-03-26T21:01:27.650Z,97306.22
2023-03-26T21:03:54.218Z,97302.66
2023-03-26T21:06:20.684Z,97312.25
2023-03-26T21:08:47.333Z,97324.03
2023-03-26T21:11:39.438Z,97326.34
2023-03-26T21:14:27.229Z,97328.91
2023-03-26T21:16:54.117Z,97333.75
2023-03-26T21:19:21.047Z,97340.72
2023-03-26T21:22:10.961Z,97349.88
2023-03-26T21:24:56.981Z,97354.53
2023-03-26T21:27:26.453Z,97354.72
2023-03-26T21:29:56.071Z,97357.25
2023-03-26T21:32:23.158Z,97363.44
2023-03-26T21:34:58.566Z,97368.16
2023-03-26T21:37:26.530Z,97386.19
2023-03-26T21:39:53.271Z,97389.31
2023-03-26T21:42:20.095Z,97389.38
2023-03-26T21:44:46.900Z,97390.06
2023-03-26T21:47:13.979Z,97394.97
2023-03-26T21:49:41.230Z,97408.41
2023-03-26T21:52:14.561Z,97415.88
2023-03-26T21:54:43.042Z,97411.66
2023-03-26T21:57:28.989Z,97419.59
2023-03-26T22:00:15.128Z,97427.28
2023-03-26T22:02:58.510Z,97435.50
2023-03-26T22:05:47.922Z,97446.19
2023-03-26T22:08:27.525Z,97458.44
2023-03-26T22:10:54.066Z,97460.97
2023-03-26T22:13:20.675Z,97459.47
2023-03-26T22:15:47.100Z,97463.94
2023-03-26T22:18:14.225Z,97477.81
2023-03-26T22:20:43.239Z,97484.41
2023-03-26T22:23:09.804Z,97486.34
2023-03-26T22:25:36.348Z,97497.34
2023-03-26T22:28:04.256Z,97492.97
2023-03-26T22:30:30.864Z,97498.53
2023-03-26T22:32:58.692Z,97506.44
2023-03-26T22:35:26.218Z,97516.66
2023-03-26T22:37:53.002Z,97516.31
2023-03-26T22:40:27.768Z,97530.88
2023-03-26T22:42:54.317Z,97534.91
2023-03-26T22:45:22.831Z,97541.09
2023-03-26T22:47:49.967Z,97535.50
2023-03-26T22:50:16.639Z,97551.75
2023-03-26T22:52:43.540Z,97560.09
2023-03-26T22:55:11.629Z,97562.50
2023-03-26T22:57:39.166Z,97570.00
2023-03-26T23:00:15.561Z,97578.34
2023-03-26T23:02:46.306Z,97578.53
2023-03-26T23:05:14.236Z,97585.44
2023-03-26T23:07:42.311Z,97600.34
2023-03-26T23:10:10.041Z,97608.81
2023-03-26T23:12:38.008Z,97611.88
2023-03-26T23:15:05.562Z,97618.56
2023-03-26T23:17:34.950Z,97622.56
2023-03-26T23:20:06.037Z,97627.56
2023-03-26T23:22:32.586Z,97634.41
2023-03-26T23:24:59.028Z,97635.03
2023-03-26T23:27:25.480Z,97637.31
2023-03-26T23:29:51.897Z,97638.84
2023-03-26T23:32:24.728Z,97649.41
2023-03-26T23:34:52.795Z,97656.06
2023-03-26T23:37:23.121Z,97659.06
2023-03-26T23:39:51.296Z,97667.13
2023-03-26T23:42:28.316Z,97668.84
2023-03-26T23:44:56.604Z,97671.97
2023-03-26T23:47:23.126Z,97684.09
2023-03-26T23:49:50.179Z,97692.31
2023-03-26T23:52:16.658Z,97699.28
2023-03-26T23:54:43.085Z,97709.94
2023-03-26T23:57:10.507Z,97711.22
2023-03-26T23:59:37.078Z,97703.66
